createdAt,value
2019-04-06T07:10:08.185Z,99.99
2019-04-06T07:11:08.146Z,99.99
2019-04-06T07:12:08.139Z,99.99
2019-04-06T07:13:08.098Z,99.99
2019-04-06T07:14:08.264Z,99.99
2019-04-06T07:15:08.098Z,99.99
2019-04-06T07:16:08.032Z,99.99
2019-04-06T07:17:08.028Z,99.99
2019-04-06T07:18:07.991Z,99.99
2019-04-06T07:19:07.967Z,99.99
2019-04-06T07:20:08.170Z,99.99
2019-04-06T07:21:08.024Z,99.99
2019-04-06T07:22:07.930Z,99.99
2019-04-06T07:23:07.889Z,99.99
2019-04-06T07:24:07.870Z,99.99
2019-04-06T07:25:07.847Z,99.99
2019-04-06T07:26:07.943Z,99.99
2019-04-06T07:27:07.826Z,99.99
2019-04-06T07:28:07.866Z,99.99
2019-04-06T07:29:07.989Z,99.99
2019-04-06T07:30:07.811Z,99.99
2019-04-06T07:31:07.736Z,99.99
2019-04-06T07:32:07.716Z,99.99
2019-04-06T07:33:07.712Z,99.99
2019-04-06T07:34:07.672Z,99.99
2019-04-06T07:35:07.661Z,99.99
2019-04-06T07:36:07.649Z,99.99
2019-04-06T07:37:07.727Z,99.99
2019-04-06T07:38:07.611Z,99.99
2019-04-06T07:39:07.604Z,99.99
2019-04-06T07:40:07.638Z,99.99
2019-04-06T07:41:07.595Z,99.99
2019-04-06T07:42:07.524Z,99.99
2019-04-06T07:43:07.557Z,99.99
2019-04-06T07:44:07.686Z,99.99
2019-04-06T07:45:07.862Z,99.99
2019-04-06T07:46:07.446Z,99.99
2019-04-06T07:47:07.426Z,99.99
2019-04-06T07:48:07.622Z,99.99
2019-04-06T07:49:09.164Z,99.99
2019-04-06T07:50:07.381Z,99.99
2019-04-06T07:51:07.359Z,99.99
2019-04-06T07:52:07.353Z,99.99
2019-04-06T07:53:07.332Z,99.99
2019-04-06T07:54:07.302Z,99.99
2019-04-06T07:55:07.310Z,99.99
2019-04-06T07:56:07.267Z,99.99
2019-04-06T07:57:07.247Z,99.99
2019-04-06T08:05:23.011Z,99.99
2019-04-06T08:06:22.976Z,99.99
2019-04-06T08:07:22.959Z,99.99
2019-04-06T08:08:22.955Z,99.99
2019-04-06T08:09:23.148Z,99.99
2019-04-06T08:10:22.907Z,99.99
2019-04-06T08:12:54.928Z,99.99
2019-04-06T08:13:55.076Z,99.99
2019-04-06T08:14:57.348Z,99.99
2019-04-06T08:19:48.604Z,99.99
2019-04-06T08:20:48.572Z,99.99
2019-04-06T08:21:48.551Z,99.99
2019-04-06T08:22:48.530Z,99.99
2019-04-06T08:23:48.611Z,99.99
2019-04-06T08:24:48.496Z,99.99
2019-04-06T08:32:19.817Z,99.99
2019-04-06T08:33:19.614Z,99.99
2019-04-06T08:34:19.571Z,99.99
2019-04-06T08:35:25.173Z,99.99
2019-04-06T08:36:19.532Z,99.99
2019-04-06T08:37:19.513Z,99.99
2019-04-06T08:38:19.511Z,99.99
2019-04-06T08:39:19.477Z,99.99
2019-04-06T08:40:19.460Z,99.99
2019-04-06T08:41:19.472Z,99.99
2019-04-06T08:42:19.424Z,99.99
2019-04-06T08:43:19.422Z,99.99
2019-04-06T08:44:19.391Z,99.99
2019-04-06T08:45:19.458Z,99.99
2019-04-06T08:46:19.518Z,99.99
2019-04-06T08:47:19.339Z,99.99
2019-04-06T08:48:19.331Z,99.99
2019-04-06T08:49:19.305Z,99.99
2019-04-06T08:50:19.284Z,99.99
2019-04-06T08:51:19.275Z,99.99
2019-04-06T08:52:19.288Z,99.99
2019-04-06T08:53:19.236Z,99.99
2019-04-06T08:54:19.218Z,99.99
2019-04-06T08:55:19.202Z,99.99
2019-04-06T08:56:19.185Z,99.99
2019-04-06T08:57:19.366Z,99.99
2019-04-06T08:58:19.174Z,99.99
2019-04-06T08:59:19.134Z,99.99
2019-04-06T09:00:19.119Z,99.99
2019-04-06T09:05:49.094Z,99.99
2019-04-06T09:06:49.069Z,99.99
2019-04-06T09:07:49.064Z,99.99
2019-04-06T09:08:49.027Z,99.99
2019-04-06T09:09:49.010Z,99.99
2019-04-06T09:10:49.142Z,99.99
2019-04-06T09:11:51.940Z,99.99
2019-04-06T09:12:48.957Z,99.99
2019-04-06T09:13:48.955Z,99.99
2019-04-06T09:14:48.931Z,99.99
2019-04-06T09:15:48.908Z,99.99
2019-04-06T09:16:48.893Z,99.99
2019-04-06T09:17:48.877Z,99.99
2019-04-06T09:18:49.517Z,99.99
2019-04-06T09:19:49.085Z,99.99
2019-04-06T09:20:48.826Z,99.99
2019-04-06T09:21:48.809Z,99.99
2019-04-06T09:22:48.810Z,99.99
2019-04-06T09:23:48.793Z,99.99
2019-04-06T09:24:48.761Z,99.99
2019-04-06T09:25:48.745Z,99.99
2019-04-06T09:26:48.888Z,99.99
2019-04-06T09:27:48.745Z,99.99
2019-04-06T09:28:48.708Z,99.99
2019-04-06T09:29:48.681Z,99.99
2019-04-06T09:30:48.664Z,99.99
2019-04-06T09:31:48.650Z,99.99
2019-04-06T09:32:48.632Z,99.99
2019-04-06T09:33:48.699Z,99.99
2019-04-06T09:34:48.601Z,99.99
2019-04-06T09:35:48.587Z,98.85
2019-04-06T09:36:48.587Z,97.42
2019-04-06T09:37:48.671Z,97.99
2019-04-06T09:38:48.551Z,96.18
2019-04-06T09:39:48.520Z,96.37
2019-04-06T09:40:48.565Z,97.33
2019-04-06T09:41:48.488Z,96.18
2019-04-06T09:42:48.725Z,95.51
2019-04-06T09:43:48.471Z,95.79
2019-04-06T09:44:48.443Z,96.08
2019-04-06T09:45:48.428Z,97.23
2019-04-06T09:46:48.412Z,95.70
2019-04-06T09:47:48.395Z,95.61
2019-04-06T09:48:48.394Z,95.89
2019-04-06T09:49:48.362Z,94.84
2019-04-06T09:50:48.348Z,95.12
2019-04-06T09:51:48.331Z,95.41
2019-04-06T09:52:48.317Z,96.37
2019-04-06T09:53:48.342Z,95.22
2019-04-06T09:54:48.285Z,94.74
2019-04-06T09:55:48.442Z,93.12
2019-04-06T09:56:48.251Z,92.74
2019-04-06T09:57:48.239Z,91.78
2019-04-06T09:58:48.221Z,93.31
2019-04-06T09:59:48.580Z,91.78
2019-04-06T10:00:48.191Z,90.53
2019-04-06T10:01:48.423Z,90.58
2019-04-06T10:02:48.159Z,89.72
2019-04-06T10:03:48.146Z,89.96
2019-04-06T10:04:48.143Z,89.58
2019-04-06T10:09:22.980Z,90.30
2019-04-06T10:10:22.948Z,89.62
2019-04-06T10:11:22.933Z,88.67
2019-04-06T10:12:22.919Z,89.62
2019-04-06T10:13:22.899Z,90.01
2019-04-06T10:14:22.981Z,89.62
2019-04-06T10:15:22.868Z,89.05
2019-04-06T10:16:22.851Z,89.53
2019-04-06T10:17:22.835Z,88.38
2019-04-06T10:18:22.819Z,88.09
2019-04-06T10:19:22.803Z,88.67
2019-04-06T10:20:23.084Z,87.95
2019-04-06T10:21:22.890Z,86.61
2019-04-06T10:22:22.957Z,86.76
2019-04-06T10:23:22.740Z,86.94
2019-04-06T10:24:23.024Z,87.23
2019-04-06T10:25:22.724Z,87.27
2019-04-06T10:28:59.941Z,87.27
2019-04-06T10:29:59.940Z,87.37
2019-04-06T10:30:59.902Z,87.08
2019-04-06T10:31:59.919Z,87.56
2019-04-06T10:32:59.882Z,87.08
2019-04-06T10:33:59.856Z,85.75
2019-04-06T10:34:59.840Z,84.69
2019-04-06T10:35:59.837Z,85.65
2019-04-06T10:36:59.844Z,84.59
2019-04-06T10:37:59.984Z,84.79
2019-04-06T10:38:59.776Z,85.21
2019-04-06T10:39:59.759Z,85.02
2019-04-06T10:40:59.759Z,84.16
2019-04-06T10:44:42.391Z,82.01
2019-04-06T10:45:42.386Z,83.68
2019-04-06T10:46:42.352Z,83.39
2019-04-06T10:47:42.555Z,83.59
2019-04-06T10:48:42.589Z,83.59
2019-04-06T10:49:42.520Z,82.43
2019-04-06T10:50:42.293Z,82.06
2019-04-06T10:51:42.289Z,82.53
2019-04-06T10:52:42.259Z,81.00
2019-04-06T10:53:42.246Z,82.63
2019-04-06T10:54:42.288Z,82.43
2019-04-06T10:55:42.519Z,81.86
2019-04-06T10:56:42.209Z,81.96
2019-04-06T10:57:42.183Z,81.77
2019-04-06T10:58:42.484Z,81.90
2019-04-06T10:59:42.153Z,80.94
2019-04-06T11:00:42.135Z,81.23
2019-04-06T11:01:42.175Z,80.37
2019-04-06T11:02:42.406Z,81.13
2019-04-06T11:03:42.116Z,81.52
2019-04-06T11:07:59.511Z,81.13
2019-04-06T11:08:59.411Z,81.23
2019-04-06T11:09:59.394Z,81.23
2019-04-06T11:10:59.381Z,81.20
2019-04-06T11:11:59.465Z,81.67
2019-04-06T11:12:59.355Z,81.57
2019-04-06T11:13:59.499Z,81.48
2019-04-06T11:14:59.318Z,81.67
2019-04-06T11:15:59.303Z,82.29
2019-04-06T11:16:59.512Z,81.67
2019-04-06T11:17:59.275Z,81.81
2019-04-06T11:18:59.260Z,81.90
2019-04-06T11:19:59.425Z,81.04
2019-04-06T11:20:59.290Z,81.04
2019-04-06T11:21:59.231Z,80.56
2019-04-06T11:22:59.196Z,79.41
2019-04-06T11:23:59.185Z,79.60
2019-04-06T11:24:59.167Z,81.18
2019-04-06T11:25:59.157Z,80.41
2019-04-06T11:26:59.140Z,79.26
2019-04-06T11:27:59.138Z,78.30
2019-04-06T11:28:59.116Z,78.20
2019-04-06T11:30:11.220Z,79.36
2019-04-06T11:30:59.103Z,78.44
2019-04-06T11:31:59.066Z,77.86
2019-04-06T11:32:59.067Z,77.61
2019-04-06T11:33:59.038Z,75.73
2019-04-06T11:34:59.022Z,74.43
2019-04-06T11:35:59.005Z,73.08
2019-04-06T11:36:59.122Z,72.34
2019-04-06T11:37:58.992Z,72.19
2019-04-06T11:38:59.249Z,70.46
2019-04-06T11:39:58.951Z,69.82
2019-04-06T11:40:58.934Z,68.98
2019-04-06T11:41:58.923Z,69.08
2019-04-06T11:42:58.922Z,68.89
2019-04-06T11:43:58.892Z,68.83
2019-04-06T11:44:58.878Z,68.79
2019-04-06T11:45:58.881Z,68.83
2019-04-06T11:46:58.854Z,68.63
2019-04-06T11:47:58.915Z,69.02
2019-04-06T11:48:58.823Z,68.96
2019-04-06T11:49:58.817Z,68.29
2019-04-06T11:50:58.804Z,67.42
2019-04-06T11:51:58.784Z,65.46
2019-04-06T11:52:58.821Z,66.71
2019-04-06T11:53:58.758Z,66.91
2019-04-06T11:54:58.811Z,68.21
2019-04-06T11:55:58.730Z,68.44
2019-04-06T11:56:58.958Z,66.71
2019-04-06T11:57:58.706Z,66.71
2019-04-06T11:58:59.007Z,67.22
2019-04-06T11:59:58.680Z,66.36
2019-04-06T12:01:01.091Z,65.78
2019-04-06T12:01:58.877Z,65.27
2019-04-06T12:02:58.640Z,65.05
2019-04-06T12:03:58.648Z,64.31
2019-04-06T12:04:58.628Z,64.73
2019-04-06T12:05:58.853Z,64.02
2019-04-06T12:07:00.810Z,63.73
2019-04-06T12:07:58.630Z,62.77
2019-04-06T12:08:58.573Z,63.76
2019-04-06T12:09:58.552Z,62.63
2019-04-06T12:10:58.537Z,62.25
2019-04-06T12:11:58.524Z,62.06
2019-04-06T12:12:58.511Z,62.15
2019-04-06T12:13:58.513Z,61.10
2019-04-06T12:14:58.489Z,61.07
2019-04-06T12:15:58.474Z,61.48
2019-04-06T12:16:58.736Z,60.86
2019-04-06T12:17:58.734Z,59.64
2019-04-06T12:18:58.452Z,58.55
2019-04-06T12:19:58.425Z,59.23
2019-04-06T12:20:58.415Z,58.17
2019-04-06T12:21:58.406Z,58.17
2019-04-06T12:22:58.697Z,58.17
2019-04-06T12:23:58.394Z,59.03
2019-04-06T12:24:58.373Z,59.23
2019-04-06T12:25:58.356Z,58.94
2019-04-06T12:26:58.645Z,57.64
2019-04-06T12:27:58.335Z,58.90
2019-04-06T12:28:58.337Z,58.10
2019-04-06T12:29:58.311Z,57.52
2019-04-06T12:30:58.296Z,58.61
2019-04-06T12:31:58.289Z,57.29
2019-04-06T12:32:58.275Z,56.18
2019-04-06T12:33:58.279Z,55.92
2019-04-06T12:34:58.255Z,54.90
2019-04-06T12:35:58.246Z,56.58
2019-04-06T12:36:58.246Z,57.19
2019-04-06T12:37:58.260Z,57.93
2019-04-06T12:38:58.364Z,57.16
2019-04-06T12:39:58.200Z,57.93
2019-04-06T12:40:58.326Z,59.78
2019-04-06T12:41:58.182Z,59.83
2019-04-06T12:42:58.492Z,58.68
2019-04-06T12:43:58.160Z,58.69
2019-04-06T12:44:58.168Z,60.80
2019-04-06T12:45:58.189Z,60.42
2019-04-06T12:46:58.133Z,61.65
2019-04-06T12:47:58.122Z,62.32
2019-04-06T12:48:58.109Z,63.18
2019-04-06T12:49:58.283Z,63.31
2019-04-06T12:50:58.090Z,61.90
2019-04-06T12:51:58.555Z,60.13
2019-04-06T12:52:58.071Z,59.39
2019-04-06T12:53:58.061Z,60.74
2019-04-06T12:54:58.065Z,59.35
2019-04-06T12:55:58.041Z,58.00
2019-04-06T12:56:58.035Z,58.42
2019-04-06T12:57:58.022Z,56.09
2019-04-06T12:58:58.011Z,54.82
2019-04-06T12:59:58.332Z,57.69
2019-04-06T13:00:57.991Z,61.46
2019-04-06T13:01:58.007Z,63.06
2019-04-06T13:02:57.973Z,63.89
2019-04-06T13:03:57.961Z,62.63
2019-04-06T13:04:57.970Z,61.48
2019-04-06T13:05:57.942Z,60.45
2019-04-06T13:06:57.969Z,61.07
2019-04-06T13:07:57.920Z,62.51
2019-04-06T13:08:58.328Z,64.34
2019-04-06T13:09:58.025Z,65.75
2019-04-06T13:10:57.913Z,66.49
2019-04-06T13:11:57.883Z,67.41
2019-04-06T13:12:57.873Z,68.28
2019-04-06T13:13:57.860Z,68.66
2019-04-06T13:14:57.917Z,69.08
2019-04-06T13:15:58.032Z,68.31
2019-04-06T13:16:57.829Z,68.51
2019-04-06T13:17:57.819Z,68.28
2019-04-06T13:18:57.809Z,68.57
2019-04-06T13:19:57.797Z,69.11
2019-04-06T13:20:57.799Z,68.76
2019-04-06T13:21:57.777Z,69.78
2019-04-06T13:22:57.765Z,69.14
2019-04-06T13:23:57.751Z,68.47
2019-04-06T13:24:57.741Z,69.66
2019-04-06T13:25:57.746Z,67.35
2019-04-06T13:26:57.718Z,68.31
2019-04-06T13:27:57.711Z,68.79
2019-04-06T13:28:57.894Z,68.98
2019-04-06T13:29:57.704Z,68.70
2019-04-06T13:31:03.031Z,70.29
2019-04-06T13:31:57.661Z,69.72
2019-04-06T13:32:58.549Z,69.62
2019-04-06T13:33:57.641Z,68.92
2019-04-06T13:34:57.631Z,67.51
2019-04-06T13:35:57.649Z,68.35
2019-04-06T13:36:57.604Z,68.31
2019-04-06T13:37:57.592Z,68.60
2019-04-06T13:38:57.578Z,69.72
2019-04-06T13:39:57.605Z,69.75
2019-04-06T13:40:57.573Z,69.95
2019-04-06T13:41:57.786Z,68.02
2019-04-06T13:42:57.533Z,66.78
2019-04-06T13:43:57.758Z,64.86
2019-04-06T13:44:57.509Z,64.34
2019-04-06T13:45:57.499Z,63.06
2019-04-06T13:46:57.499Z,63.99
2019-04-06T13:47:57.781Z,65.66
2019-04-06T13:48:57.465Z,64.86
2019-04-06T13:49:57.690Z,64.02
2019-04-06T13:50:57.442Z,62.60
2019-04-06T13:51:57.442Z,62.25
2019-04-06T13:52:57.420Z,61.41
2019-04-06T13:53:57.422Z,61.74
2019-04-06T13:54:57.611Z,63.57
2019-04-06T13:55:57.384Z,65.40
2019-04-06T13:56:57.387Z,65.20
2019-04-06T13:57:57.367Z,65.05
2019-04-06T13:58:57.405Z,64.18
2019-04-06T13:59:57.347Z,63.79
2019-04-06T14:00:57.381Z,63.60
2019-04-06T14:01:57.337Z,62.32
2019-04-06T14:02:57.315Z,62.12
2019-04-06T14:03:57.299Z,62.09
2019-04-06T14:04:57.293Z,63.31
2019-04-06T14:05:57.324Z,62.87
2019-04-06T14:06:57.287Z,63.38
2019-04-06T14:07:57.258Z,64.02
2019-04-06T14:08:57.338Z,65.53
2019-04-06T14:09:57.238Z,66.10
2019-04-06T14:10:57.589Z,67.35
2019-04-06T14:11:57.371Z,68.18
2019-04-06T14:12:57.227Z,69.20
2019-04-06T14:13:57.464Z,69.30
2019-04-06T14:14:57.184Z,70.45
2019-04-06T14:15:57.172Z,71.22
2019-04-06T14:16:57.501Z,71.09
2019-04-06T14:17:57.168Z,72.24
2019-04-06T14:18:57.140Z,70.99
2019-04-06T14:19:57.126Z,70.61
2019-04-06T14:20:57.114Z,70.51
2019-04-06T14:21:57.103Z,70.61
2019-04-06T14:22:57.249Z,70.70
2019-04-06T14:23:57.377Z,70.70
2019-04-06T14:24:57.250Z,71.09
2019-04-06T14:25:57.319Z,70.80
2019-04-06T14:26:57.053Z,71.57
2019-04-06T14:27:57.043Z,71.66
2019-04-06T14:28:57.256Z,72.18
2019-04-06T14:29:57.007Z,71.51
2019-04-06T14:30:56.991Z,70.99
2019-04-06T14:31:56.983Z,70.84
2019-04-06T14:32:56.978Z,71.31
2019-04-06T14:33:56.954Z,70.74
2019-04-06T14:34:57.054Z,71.31
2019-04-06T14:35:56.926Z,71.80
2019-04-06T14:36:57.104Z,71.61
2019-04-06T14:37:57.211Z,71.70
2019-04-06T14:38:56.887Z,71.12
2019-04-06T14:39:56.874Z,71.89
2019-04-06T14:40:56.870Z,71.57
2019-04-06T14:41:56.846Z,71.57
2019-04-06T14:42:56.849Z,71.66
2019-04-06T14:43:56.820Z,71.95
2019-04-06T14:44:56.909Z,72.72
2019-04-06T14:45:56.795Z,72.43
2019-04-06T14:46:56.781Z,72.14
2019-04-06T14:47:56.900Z,72.53
2019-04-06T14:48:56.753Z,72.53
2019-04-06T14:49:56.740Z,73.04
2019-04-06T14:50:56.729Z,72.43
2019-04-06T14:51:56.714Z,71.57
2019-04-06T14:52:56.707Z,71.66
2019-04-06T14:53:57.043Z,72.05
2019-04-06T14:54:56.684Z,71.95
2019-04-06T14:55:57.110Z,72.05
2019-04-06T14:56:57.141Z,72.05
2019-04-06T14:57:56.817Z,71.37
2019-04-06T14:58:57.151Z,71.89
2019-04-06T14:59:56.627Z,71.80
2019-04-06T15:00:56.589Z,70.74
2019-04-06T15:01:59.258Z,70.45
2019-04-06T15:02:56.562Z,71.31
2019-04-06T15:03:56.562Z,71.41
2019-04-06T15:04:56.743Z,71.51
2019-04-06T15:05:56.523Z,71.89
2019-04-06T15:06:56.511Z,71.98
2019-04-06T15:07:57.063Z,71.61
2019-04-06T15:08:56.657Z,71.70
2019-04-06T15:09:56.468Z,71.12
2019-04-06T15:10:56.455Z,71.03
2019-04-06T15:11:56.963Z,72.24
2019-04-06T15:12:56.548Z,71.95
2019-04-06T15:13:56.435Z,71.66
2019-04-06T15:14:56.408Z,72.43
2019-04-06T15:15:56.569Z,72.14
2019-04-06T15:16:56.386Z,72.28
2019-04-06T15:17:56.743Z,70.42
2019-04-06T15:18:56.538Z,71.22
2019-04-06T15:19:56.330Z,71.31
2019-04-06T15:20:56.315Z,71.89
2019-04-06T15:21:56.300Z,70.64
2019-04-06T15:22:56.656Z,70.93
2019-04-06T15:23:56.289Z,71.12
2019-04-06T15:24:56.688Z,70.45
2019-04-06T15:25:56.248Z,70.78
2019-04-06T15:26:56.702Z,70.84
2019-04-06T15:27:56.265Z,71.25
2019-04-06T15:28:56.301Z,70.29
2019-04-06T15:29:56.315Z,70.78
2019-04-06T15:30:56.621Z,70.29
2019-04-06T15:31:56.467Z,69.97
2019-04-06T15:32:56.171Z,69.62
2019-04-06T15:33:56.256Z,69.91
2019-04-06T15:34:56.387Z,69.81
2019-04-06T15:35:56.295Z,69.62
2019-04-06T15:36:56.096Z,68.82
2019-04-06T15:37:56.086Z,69.53
2019-04-06T15:38:56.399Z,69.72
2019-04-06T15:39:56.072Z,70.07
2019-04-06T15:40:56.043Z,70.55
2019-04-06T15:41:57.402Z,70.39
2019-04-06T15:42:56.174Z,71.55
2019-04-06T15:43:56.002Z,70.64
2019-04-06T15:44:56.005Z,70.55
2019-04-06T15:45:55.981Z,70.74
2019-04-06T15:46:55.967Z,71.31
2019-04-06T15:47:56.112Z,71.12
2019-04-06T15:48:55.936Z,71.03
2019-04-06T15:49:55.987Z,70.68
2019-04-06T15:50:55.910Z,70.29
2019-04-06T15:51:56.203Z,70.49
2019-04-06T15:52:55.971Z,69.91
2019-04-06T15:53:55.920Z,69.30
2019-04-06T15:54:57.096Z,69.14
2019-04-06T15:55:56.930Z,69.72
2019-04-06T15:56:57.130Z,69.43
2019-04-06T15:57:57.425Z,69.53
2019-04-06T15:58:56.931Z,69.72
2019-04-06T15:59:58.428Z,70.10
2019-04-06T16:00:56.514Z,71.73
2019-04-06T16:02:01.501Z,71.16
2019-04-06T16:02:55.898Z,69.62
2019-04-06T16:03:55.740Z,69.72
2019-04-06T16:04:55.760Z,69.75
2019-04-06T16:05:57.272Z,69.95
2019-04-06T16:06:56.203Z,68.79
2019-04-06T16:07:56.050Z,68.15
2019-04-06T16:08:55.671Z,67.29
2019-04-06T16:09:55.680Z,67.19
2019-04-06T16:10:55.648Z,66.36
2019-04-06T16:11:55.633Z,66.46
2019-04-06T16:12:55.789Z,66.17
2019-04-06T16:13:55.678Z,65.69
2019-04-06T16:14:55.600Z,66.65
2019-04-06T16:15:55.784Z,65.75
2019-04-06T16:16:55.574Z,66.04
2019-04-06T16:17:55.563Z,65.88
2019-04-06T16:18:55.557Z,67.19
2019-04-06T16:19:55.660Z,66.61
2019-04-06T16:20:55.707Z,65.69
2019-04-06T16:21:55.517Z,66.71
2019-04-06T16:22:55.674Z,66.46
2019-04-06T16:24:02.346Z,66.46
2019-04-06T16:24:55.482Z,66.33
2019-04-06T16:25:55.487Z,66.81
2019-04-06T16:26:55.462Z,66.46
2019-04-06T16:27:55.453Z,66.74
2019-04-06T16:28:55.438Z,65.63
2019-04-06T16:29:55.429Z,65.11
2019-04-06T16:30:55.440Z,65.53
2019-04-06T16:31:55.452Z,65.50
2019-04-06T16:32:55.772Z,65.97
2019-04-06T16:33:55.383Z,66.61
2019-04-06T16:34:55.374Z,67.93
2019-04-06T16:35:55.410Z,68.15
2019-04-06T16:36:55.608Z,67.68
2019-04-06T16:37:55.343Z,67.48
2019-04-06T16:38:55.330Z,66.46
2019-04-06T16:39:55.614Z,66.10
2019-04-06T16:40:55.325Z,65.50
2019-04-06T16:41:56.700Z,65.05
2019-04-06T16:42:55.289Z,64.56
2019-04-06T16:43:55.277Z,63.99
2019-04-06T16:44:55.266Z,64.37
2019-04-06T16:45:55.325Z,65.33
2019-04-06T16:46:55.261Z,64.40
2019-04-06T16:47:55.238Z,63.82
2019-04-06T16:48:55.626Z,64.21
2019-04-06T16:49:55.264Z,63.92
2019-04-06T16:50:55.389Z,64.21
2019-04-06T16:51:55.210Z,63.64
2019-04-06T16:52:55.294Z,63.64
2019-04-06T16:53:55.605Z,64.08
2019-04-06T16:54:55.263Z,65.11
2019-04-06T16:55:55.156Z,66.61
2019-04-06T16:56:55.221Z,68.12
2019-04-06T16:57:55.203Z,67.64
2019-04-06T16:58:55.333Z,68.12
2019-04-06T16:59:55.115Z,68.79
2019-04-06T17:00:55.121Z,69.91
2019-04-06T17:01:55.156Z,70.20
2019-04-06T17:02:55.140Z,70.39
2019-04-06T17:03:55.071Z,70.45
2019-04-06T17:04:55.061Z,69.97
2019-04-06T17:05:55.158Z,71.31
2019-04-06T17:06:55.039Z,72.08
2019-04-06T17:07:55.039Z,71.31
2019-04-06T17:08:55.282Z,71.61
2019-04-06T17:09:55.004Z,72.28
2019-04-06T17:10:54.991Z,73.43
2019-04-06T17:11:55.523Z,74.54
2019-04-06T17:13:04.037Z,74.73
2019-04-06T17:13:54.952Z,74.16
2019-04-06T17:14:55.039Z,75.31
2019-04-06T17:15:54.926Z,75.70
2019-04-06T17:16:54.952Z,75.75
2019-04-06T17:17:54.985Z,75.27
2019-04-06T17:18:54.890Z,74.69
2019-04-06T17:19:55.168Z,74.89
2019-04-06T17:20:54.886Z,75.27
2019-04-06T17:21:54.849Z,77.00
2019-04-06T17:22:55.011Z,75.56
2019-04-06T17:23:54.899Z,75.81
2019-04-06T17:24:54.809Z,76.52
2019-04-06T17:25:54.812Z,76.77
2019-04-06T17:26:54.834Z,75.81
2019-04-06T17:27:54.958Z,76.10
2019-04-06T17:28:54.758Z,75.71
2019-04-06T17:29:54.857Z,76.39
2019-04-06T17:30:54.730Z,76.67
2019-04-06T17:31:55.059Z,77.15
2019-04-06T17:32:54.713Z,77.73
2019-04-06T17:33:54.689Z,77.73
2019-04-06T17:34:56.666Z,79.26
2019-04-06T17:35:54.869Z,78.88
2019-04-06T17:36:54.993Z,78.59
2019-04-06T17:37:55.088Z,78.93
2019-04-06T17:38:54.701Z,80.18
2019-04-06T17:39:54.989Z,79.60
2019-04-06T17:40:54.706Z,79.89
2019-04-06T17:41:54.575Z,80.66
2019-04-06T17:42:54.882Z,80.56
2019-04-06T17:43:54.561Z,80.94
2019-04-06T17:44:54.533Z,81.13
2019-04-06T17:45:54.519Z,81.77
2019-04-06T17:46:54.636Z,82.53
2019-04-06T17:47:54.559Z,82.82
2019-04-06T17:48:54.536Z,84.35
2019-04-06T17:49:54.461Z,85.12
2019-04-06T17:50:54.549Z,85.27
2019-04-06T17:51:54.425Z,85.36
2019-04-06T17:52:54.735Z,85.75
2019-04-06T17:53:54.783Z,87.27
2019-04-06T17:54:54.708Z,86.61
2019-04-06T17:55:54.370Z,85.65
2019-04-06T17:56:54.715Z,85.94
2019-04-06T17:57:54.768Z,85.99
2019-04-06T17:58:54.336Z,86.47
2019-04-06T17:59:54.309Z,87.14
2019-04-06T18:00:54.296Z,86.94
2019-04-06T18:01:54.627Z,87.81
2019-04-06T18:02:54.266Z,88.95
2019-04-06T18:03:54.283Z,88.29
2019-04-06T18:04:54.307Z,89.53
2019-04-06T18:05:54.304Z,89.15
2019-04-06T18:06:54.258Z,88.95
2019-04-06T18:07:54.454Z,90.01
2019-04-06T18:08:54.165Z,89.62
2019-04-06T18:09:54.167Z,90.58
2019-04-06T18:10:54.661Z,90.92
2019-04-06T18:11:54.198Z,91.88
2019-04-06T18:12:54.221Z,91.30
2019-04-06T18:13:54.087Z,91.39
2019-04-06T18:14:54.151Z,90.73
2019-04-06T18:15:54.058Z,90.92
2019-04-06T18:16:54.044Z,91.39
2019-04-06T18:17:54.023Z,92.07
2019-04-06T18:18:54.009Z,93.36
2019-04-06T18:19:54.005Z,92.88
2019-04-06T18:20:53.973Z,93.16
2019-04-06T18:21:53.956Z,94.02
2019-04-06T18:22:53.945Z,94.89
2019-04-06T18:23:54.298Z,94.93
2019-04-06T18:24:53.927Z,94.98
2019-04-06T18:25:53.918Z,95.75
2019-04-06T18:26:53.880Z,95.94
2019-04-06T18:27:53.860Z,97.28
2019-04-06T18:28:53.846Z,97.66
2019-04-06T18:29:53.856Z,98.04
2019-04-06T18:30:53.809Z,99.38
2019-04-06T18:31:53.791Z,99.99
2019-04-06T18:33:00.748Z,99.99
2019-04-06T18:33:53.764Z,99.99
2019-04-06T18:34:53.769Z,99.99
2019-04-06T18:35:54.137Z,99.99
2019-04-06T18:36:53.720Z,99.99
2019-04-06T18:37:53.696Z,99.99
2019-04-06T18:38:53.739Z,99.99
2019-04-06T18:39:53.665Z,99.99
2019-04-06T18:40:53.725Z,99.99
2019-04-06T18:41:53.703Z,99.99
2019-04-06T18:42:54.436Z,99.99
2019-04-06T18:43:53.591Z,99.99
2019-04-06T18:44:53.573Z,99.99
2019-04-06T18:45:53.573Z,99.99
2019-04-06T18:46:53.961Z,99.99
2019-04-06T18:47:53.526Z,99.99
2019-04-06T18:48:54.056Z,99.99
2019-04-06T18:49:53.503Z,99.99
2019-04-06T18:50:53.487Z,99.99
2019-04-06T18:51:53.620Z,99.99
2019-04-06T18:52:53.438Z,99.99
2019-04-06T18:53:53.699Z,99.99
2019-04-06T18:54:53.405Z,99.99
2019-04-06T18:55:53.796Z,99.99
2019-04-06T18:56:53.371Z,99.99
2019-04-06T18:57:53.354Z,99.99
2019-04-06T18:58:53.563Z,99.99
2019-04-06T18:59:53.767Z,99.99
2019-04-06T19:00:53.314Z,99.99
2019-04-06T19:01:53.281Z,99.99
2019-04-06T19:02:53.693Z,99.99
2019-04-06T19:03:53.249Z,99.99
2019-04-06T19:04:53.227Z,99.99
2019-04-06T19:05:53.211Z,99.99
2019-04-06T19:06:53.433Z,99.99
2019-04-06T19:07:53.175Z,99.99
2019-04-06T19:08:53.503Z,99.99
2019-04-06T19:09:53.434Z,99.99
2019-04-06T19:10:55.318Z,99.99
2019-04-06T19:11:56.413Z,99.99
2019-04-06T19:12:53.100Z,99.99
2019-04-06T19:13:53.333Z,99.99
2019-04-06T19:14:53.215Z,99.99
2019-04-06T19:15:53.453Z,99.99
2019-04-06T19:16:53.033Z,99.99
2019-04-06T19:17:53.341Z,99.99
2019-04-06T19:18:52.984Z,99.99
2019-04-06T19:19:53.844Z,99.99
2019-04-06T19:20:52.946Z,99.99
2019-04-06T19:21:53.457Z,99.99
2019-04-06T19:22:52.911Z,99.99
2019-04-06T19:23:52.892Z,99.99
2019-04-06T19:24:52.879Z,99.99
2019-04-06T19:25:53.292Z,99.99
2019-04-06T19:26:52.858Z,99.99
2019-04-06T19:27:53.500Z,99.99
2019-04-06T19:28:52.800Z,99.99
2019-04-06T19:29:53.035Z,99.99
2019-04-06T19:30:52.774Z,99.99
2019-04-06T19:31:52.761Z,99.99
2019-04-06T19:32:52.733Z,99.99
2019-04-06T19:33:52.712Z,99.99
2019-04-06T19:34:52.868Z,99.99
2019-04-06T19:35:52.868Z,99.99
2019-04-06T19:36:53.106Z,99.99
2019-04-06T19:37:53.001Z,99.99
2019-04-06T19:38:53.020Z,99.99
2019-04-06T19:39:52.601Z,99.99
2019-04-06T19:40:52.970Z,99.99
2019-04-06T19:41:52.630Z,99.99
2019-04-06T19:42:52.550Z,99.99
2019-04-06T19:43:52.534Z,99.99
2019-04-06T19:44:52.556Z,99.99
2019-04-06T19:45:52.918Z,99.99
2019-04-06T19:46:52.958Z,99.99
2019-04-06T19:47:52.858Z,99.99
2019-04-06T19:48:52.868Z,99.99
2019-04-06T19:49:52.567Z,99.99
2019-04-06T19:50:52.402Z,99.99
2019-04-06T19:51:52.386Z,99.99
2019-04-06T19:52:52.427Z,99.99
2019-04-06T19:53:52.345Z,99.99
2019-04-06T19:54:52.326Z,99.99
2019-04-06T19:55:52.313Z,99.99
2019-04-06T19:56:52.287Z,99.99
2019-04-06T19:57:52.354Z,99.99
2019-04-06T19:58:52.418Z,99.99
2019-04-06T19:59:52.619Z,99.99
2019-04-06T20:00:52.217Z,99.99
2019-04-06T20:01:52.200Z,99.99
2019-04-06T20:02:52.199Z,99.99
2019-04-06T20:03:52.690Z,99.99
2019-04-06T20:04:52.140Z,99.99
2019-04-06T20:05:52.226Z,99.99
2019-04-06T20:06:52.153Z,99.99
2019-04-06T20:07:52.413Z,99.99
2019-04-06T20:08:52.082Z,99.99
2019-04-06T20:09:52.168Z,99.99
2019-04-06T20:10:52.031Z,99.99
2019-04-06T20:12:03.524Z,99.99
2019-04-06T20:12:52.040Z,99.99
2019-04-06T20:13:51.985Z,99.99
2019-04-06T20:14:51.953Z,99.99
2019-04-06T20:15:51.933Z,99.99
2019-04-06T20:16:51.915Z,99.99
2019-04-06T20:17:51.896Z,99.99
2019-04-06T20:18:52.144Z,99.99
2019-04-06T20:19:51.991Z,99.99
2019-04-06T20:20:51.839Z,99.99
2019-04-06T20:21:52.066Z,99.99
2019-04-06T20:22:51.804Z,99.99
2019-04-06T20:23:51.799Z,99.99
2019-04-06T20:24:52.116Z,99.99
2019-04-06T20:25:52.030Z,99.99
2019-04-06T20:26:52.102Z,99.99
2019-04-06T20:27:52.155Z,99.99
2019-04-06T20:28:52.278Z,99.99
2019-04-06T20:29:51.893Z,99.99
2019-04-06T20:30:52.153Z,99.99
2019-04-06T20:31:51.934Z,99.99
2019-04-06T20:32:51.609Z,99.99
2019-04-06T20:33:52.640Z,99.99
2019-04-06T20:34:52.115Z,99.99
2019-04-06T20:35:52.086Z,99.99
2019-04-06T20:36:51.535Z,99.99
2019-04-06T20:37:51.517Z,99.99